Time;durP1;ratioP1;P1;durP2;ratioP2;P2;SDS_P1;SDS_P2;PMS_P1;PMS_P2;Temp;Humidity;BMP_temperature;BMP_pressure;BME280_temperature;BME280_humidity;BME280_pressure;Samples;Min_cycle;Max_cycle;Signal;HPM_P1;HPM_P2
2023/09/25 00:00:36;;;;;;;0.60;0.20;;;16.30;99.90;;;;;;5084298;28;22507;-80
2023/09/25 00:03:03;;;;;;;0.50;0.10;;;16.30;99.90;;;;;;5086184;28;20059;-79
2023/09/25 00:05:33;;;;;;;0.55;0.10;;;16.30;99.90;;;;;;5068353;28;20041;-80
2023/09/25 00:08:02;;;;;;;1.42;0.20;;;16.20;99.90;;;;;;5078780;28;20606;-81
2023/09/25 00:10:31;;;;;;;0.55;0.13;;;16.30;99.90;;;;;;5081069;28;20169;-81
2023/09/25 00:12:59;;;;;;;0.73;0.10;;;16.30;99.90;;;;;;5082017;28;20531;-80
2023/09/25 00:15:26;;;;;;;1.25;0.20;;;16.30;99.90;;;;;;5095155;28;20043;-80
2023/09/25 00:17:53;;;;;;;0.70;0.10;;;16.30;99.90;;;;;;5080066;28;20040;-80
2023/09/25 00:20:23;;;;;;;0.75;0.10;;;16.20;99.90;;;;;;5076469;28;20047;-77
2023/09/25 00:22:52;;;;;;;1.85;0.10;;;16.20;99.90;;;;;;5092322;28;22481;-79
2023/09/25 00:25:19;;;;;;;0.30;0.10;;;16.30;99.90;;;;;;5079271;28;20044;-79
2023/09/25 00:27:47;;;;;;;0.68;0.10;;;16.20;99.90;;;;;;5083419;28;20048;-82
2023/09/25 00:30:18;;;;;;;1.40;0.20;;;16.20;99.90;;;;;;5080583;28;20560;-79
2023/09/25 00:32:45;;;;;;;0.43;0.20;;;16.20;99.90;;;;;;5072776;28;20097;-79
2023/09/25 00:35:13;;;;;;;1.67;0.22;;;16.20;99.90;;;;;;5067372;28;22622;-79
2023/09/25 00:37:40;;;;;;;0.93;0.20;;;16.20;99.90;;;;;;5095261;28;20572;-79
2023/09/25 00:40:30;;;;;;;0.82;0.10;;;16.30;99.90;;;;;;5085987;28;20037;-79
2023/09/25 00:42:56;;;;;;;0.57;0.20;;;16.30;99.90;;;;;;5097771;27;20044;-81
2023/09/25 00:45:23;;;;;;;1.27;0.30;;;16.30;99.90;;;;;;5092959;28;22533;-78
2023/09/25 00:47:51;;;;;;;2.00;0.20;;;16.30;99.90;;;;;;5078404;28;20048;-79
2023/09/25 00:50:19;;;;;;;0.50;0.20;;;16.30;99.90;;;;;;5076485;28;20083;-79
2023/09/25 00:52:47;;;;;;;0.30;0.10;;;16.40;99.90;;;;;;5080122;28;20054;-79
2023/09/25 00:55:15;;;;;;;0.60;0.20;;;16.40;99.90;;;;;;5089989;28;20052;-80
2023/09/25 00:57:46;;;;;;;0.88;0.10;;;16.40;99.90;;;;;;5091449;28;20044;-79
2023/09/25 01:00:14;;;;;;;2.13;0.10;;;16.30;99.90;;;;;;5065926;28;20172;-79
2023/09/25 01:02:42;;;;;;;2.15;0.20;;;16.30;99.90;;;;;;5073483;28;20137;-79
2023/09/25 01:05:10;;;;;;;0.50;0.20;;;16.30;99.90;;;;;;5085404;28;20032;-79
2023/09/25 01:07:38;;;;;;;0.45;0.20;;;16.40;99.90;;;;;;5077578;28;20055;-79
2023/09/25 01:10:14;;;;;;;0.63;0.20;;;16.40;99.90;;;;;;5087190;28;20055;-79
2023/09/25 01:12:45;;;;;;;1.23;0.20;;;16.40;99.90;;;;;;5091789;27;20048;-79
2023/09/25 01:15:13;;;;;;;1.63;0.10;;;16.40;99.90;;;;;;5075173;28;20052;-79
2023/09/25 01:17:43;;;;;;;2.05;0.68;;;16.40;99.90;;;;;;5075568;28;20398;-79
2023/09/25 01:20:15;;;;;;;1.88;0.20;;;16.40;99.90;;;;;;5085506;28;20042;-79
2023/09/25 01:22:44;;;;;;;0.95;0.10;;;16.40;99.90;;;;;;5083256;28;20051;-79
2023/09/25 01:25:12;;;;;;;2.22;0.20;;;16.40;99.90;;;;;;5081389;28;20040;-79
2023/09/25 01:27:42;;;;;;;0.30;0.10;;;16.40;99.90;;;;;;5078678;28;20054;-79
2023/09/25 01:30:11;;;;;;;0.57;0.20;;;16.30;99.90;;;;;;5078345;28;20056;-79
2023/09/25 01:32:39;;;;;;;1.40;0.30;;;16.30;99.90;;;;;;5081069;28;20040;-80
2023/09/25 01:35:11;;;;;;;0.40;0.10;;;16.30;99.90;;;;;;5080388;28;20060;-80
2023/09/25 01:37:39;;;;;;;0.75;0.10;;;16.30;99.90;;;;;;5090454;27;20048;-79
2023/09/25 01:40:16;;;;;;;1.65;0.20;;;16.20;99.90;;;;;;5077099;28;20123;-79
2023/09/25 01:42:47;;;;;;;0.50;0.20;;;16.30;99.90;;;;;;5076576;28;20044;-79
2023/09/25 01:45:17;;;;;;;0.83;0.20;;;16.30;99.90;;;;;;5070037;28;20043;-80
2023/09/25 01:47:50;;;;;;;1.35;0.20;;;16.30;99.90;;;;;;5066841;28;20078;-80
2023/09/25 01:50:26;;;;;;;0.57;0.20;;;16.20;99.90;;;;;;5084847;28;20040;-80
2023/09/25 01:53:08;;;;;;;0.57;0.20;;;16.30;99.90;;;;;;5067553;28;20159;-80
2023/09/25 01:55:39;;;;;;;1.25;0.20;;;16.30;99.90;;;;;;5091577;27;20929;-82
2023/09/25 01:58:06;;;;;;;0.50;0.10;;;16.30;99.90;;;;;;5092576;28;20109;-81
2023/09/25 02:00:35;;;;;;;1.38;0.17;;;16.20;99.90;;;;;;5075373;28;20056;-81
2023/09/25 02:03:02;;;;;;;1.15;0.20;;;16.20;99.90;;;;;;5073430;28;20049;-81
2023/09/25 02:05:30;;;;;;;1.30;0.20;;;16.20;99.90;;;;;;5064249;28;20513;-81
2023/09/25 02:07:57;;;;;;;7.07;0.90;;;16.30;99.90;;;;;;5086639;28;20582;-80
2023/09/25 02:10:24;;;;;;;2.75;0.20;;;16.30;99.90;;;;;;5079276;28;20051;-78
2023/09/25 02:12:52;;;;;;;0.77;0.30;;;16.20;99.90;;;;;;5081456;28;20131;-82
2023/09/25 02:15:20;;;;;;;2.05;0.20;;;16.20;99.90;;;;;;5081492;28;20056;-80
2023/09/25 02:17:47;;;;;;;0.70;0.13;;;16.20;99.90;;;;;;5067077;28;20398;-80
2023/09/25 02:20:19;;;;;;;0.75;0.30;;;16.20;99.90;;;;;;5081103;28;20044;-80
2023/09/25 02:22:51;;;;;;;0.30;0.13;;;16.20;99.90;;;;;;5077284;28;20126;-79
2023/09/25 02:25:18;;;;;;;;;;;16.20;99.90;;;;;;5067054;28;20394;-80
2023/09/25 02:27:46;;;;;;;1.45;0.20;;;16.20;99.90;;;;;;5082875;28;20759;-81
2023/09/25 02:30:14;;;;;;;3.75;0.28;;;16.20;99.90;;;;;;5077281;28;20383;-80
2023/09/25 02:32:42;;;;;;;2.45;0.20;;;16.20;99.90;;;;;;5080803;28;20063;-78
2023/09/25 02:35:10;;;;;;;0.47;0.10;;;16.20;99.90;;;;;;5080863;28;20044;-80
2023/09/25 02:37:40;;;;;;;0.50;0.20;;;16.20;99.90;;;;;;5082538;28;20037;-81
2023/09/25 02:40:14;;;;;;;2.28;0.32;;;16.10;99.90;;;;;;5082627;28;20064;-81
2023/09/25 02:42:47;;;;;;;2.60;0.20;;;16.10;99.90;;;;;;5080286;28;20040;-83
2023/09/25 02:45:15;;;;;;;1.80;0.20;;;16.10;99.90;;;;;;5072579;28;20048;-82
2023/09/25 02:47:43;;;;;;;1.02;0.30;;;16.20;99.90;;;;;;5071377;28;20449;-82
2023/09/25 02:50:12;;;;;;;0.70;0.30;;;16.10;99.90;;;;;;5062214;28;20445;-81
2023/09/25 02:52:39;;;;;;;1.13;0.17;;;16.10;99.90;;;;;;5080092;28;20142;-81
2023/09/25 02:55:07;;;;;;;0.80;0.25;;;16.10;99.90;;;;;;5060601;28;20052;-81
2023/09/25 02:57:35;;;;;;;1.60;0.38;;;16.10;99.90;;;;;;5084485;28;20052;-81
2023/09/25 03:00:10;;;;;;;2.70;0.30;;;16.10;99.90;;;;;;5069434;28;20058;-81
2023/09/25 03:02:38;;;;;;;3.33;0.30;;;16.10;99.90;;;;;;5057694;28;20056;-80
2023/09/25 03:05:05;;;;;;;1.25;0.30;;;16.10;99.90;;;;;;5079067;28;20113;-81
2023/09/25 03:07:34;;;;;;;1.35;0.20;;;16.10;99.90;;;;;;5066849;28;22609;-82
2023/09/25 03:10:01;;;;;;;3.42;0.30;;;16.10;99.90;;;;;;5072252;28;20071;-81
2023/09/25 03:12:29;;;;;;;1.58;0.63;;;16.10;99.90;;;;;;5067701;28;20040;-82
2023/09/25 03:14:56;;;;;;;1.33;0.50;;;16.10;99.90;;;;;;5080576;28;20055;-81
2023/09/25 03:17:24;;;;;;;2.20;0.30;;;16.10;99.90;;;;;;5101794;28;20058;-80
2023/09/25 03:19:52;;;;;;;1.33;0.45;;;16.10;99.90;;;;;;5081506;28;20035;-78
2023/09/25 03:22:19;;;;;;;1.73;0.30;;;16.20;99.90;;;;;;5079639;28;20037;-80
2023/09/25 03:24:46;;;;;;;1.67;0.28;;;16.20;99.90;;;;;;5061983;28;20117;-83
2023/09/25 03:27:14;;;;;;;2.92;0.30;;;16.10;99.90;;;;;;5062503;28;20618;-81
2023/09/25 03:29:41;;;;;;;1.83;0.20;;;16.10;99.90;;;;;;5083365;28;20098;-79
2023/09/25 03:32:08;;;;;;;2.97;0.47;;;16.10;99.90;;;;;;5084837;28;20135;-79
2023/09/25 03:34:35;;;;;;;1.42;0.20;;;16.20;99.90;;;;;;5091917;27;20130;-79
2023/09/25 03:37:06;;;;;;;0.77;0.20;;;16.20;99.90;;;;;;5088525;28;20055;-82
2023/09/25 03:39:36;;;;;;;1.25;0.30;;;16.20;99.90;;;;;;5085448;28;20392;-82
2023/09/25 03:42:03;;;;;;;2.08;0.30;;;16.30;99.90;;;;;;5067395;28;21001;-82
2023/09/25 03:44:30;;;;;;;0.82;0.15;;;16.20;99.90;;;;;;5065456;28;20080;-83
2023/09/25 03:46:57;;;;;;;0.73;0.20;;;16.30;99.90;;;;;;5058233;28;20093;-83
2023/09/25 03:49:24;;;;;;;1.60;0.22;;;16.30;99.90;;;;;;5076014;28;20044;-83
2023/09/25 03:51:51;;;;;;;2.33;0.30;;;16.30;99.90;;;;;;5074638;28;22481;-82
2023/09/25 03:54:18;;;;;;;1.20;0.30;;;16.30;99.90;;;;;;5084066;28;20135;-81
2023/09/25 03:56:45;;;;;;;1.70;0.30;;;16.30;99.90;;;;;;5082925;28;20056;-82
2023/09/25 03:59:13;;;;;;;1.35;0.40;;;16.30;99.90;;;;;;5061688;28;20056;-82
2023/09/25 04:01:40;;;;;;;3.28;0.60;;;16.30;99.90;;;;;;5088580;28;20067;-82
2023/09/25 04:04:07;;;;;;;2.38;0.35;;;16.30;99.90;;;;;;5066944;28;20053;-82
2023/09/25 04:06:34;;;;;;;3.30;0.40;;;16.30;99.90;;;;;;5092130;28;20044;-82
2023/09/25 04:09:01;;;;;;;2.13;0.40;;;16.20;99.90;;;;;;5084888;28;20049;-81
2023/09/25 04:11:28;;;;;;;1.40;0.40;;;16.20;99.90;;;;;;5096445;27;20051;-82
2023/09/25 04:13:57;;;;;;;1.58;0.40;;;16.10;99.90;;;;;;5083616;28;20053;-82
2023/09/25 04:16:24;;;;;;;1.88;0.50;;;16.10;99.90;;;;;;5067486;28;20040;-82
2023/09/25 04:18:51;;;;;;;2.35;0.50;;;16.10;99.90;;;;;;5082043;28;20052;-81
2023/09/25 04:21:18;;;;;;;1.33;0.30;;;16.10;99.90;;;;;;5047019;28;20036;-82
2023/09/25 04:23:46;;;;;;;1.27;0.38;;;16.10;99.90;;;;;;5081905;28;20473;-82
2023/09/25 04:26:13;;;;;;;3.45;0.50;;;16.20;99.90;;;;;;5076656;28;22494;-82
2023/09/25 04:28:40;;;;;;;1.02;0.47;;;16.10;99.90;;;;;;5088931;28;20087;-82
2023/09/25 04:31:08;;;;;;;2.08;0.52;;;16.10;99.90;;;;;;5078182;28;20048;-82
2023/09/25 04:33:35;;;;;;;1.88;0.40;;;16.10;99.90;;;;;;5080163;28;20041;-82
2023/09/25 04:36:03;;;;;;;3.97;0.75;;;16.10;99.90;;;;;;5062748;28;20128;-82
2023/09/25 04:38:31;;;;;;;2.60;0.45;;;16.10;99.90;;;;;;5088307;28;20047;-81
2023/09/25 04:40:59;;;;;;;1.50;0.50;;;16.00;99.90;;;;;;5062976;28;20107;-82
2023/09/25 04:43:26;;;;;;;4.93;0.50;;;16.10;99.90;;;;;;5070164;28;20048;-82
2023/09/25 04:45:55;;;;;;;3.63;0.68;;;16.10;99.90;;;;;;5063747;28;20179;-81
2023/09/25 04:48:22;;;;;;;1.50;0.70;;;16.10;99.90;;;;;;5082099;28;20049;-82
2023/09/25 04:50:50;;;;;;;1.98;0.50;;;16.10;99.90;;;;;;5077078;28;20125;-82
2023/09/25 04:53:19;;;;;;;2.17;0.55;;;16.10;99.90;;;;;;5066558;28;20040;-82
2023/09/25 04:55:47;;;;;;;3.10;0.90;;;16.10;99.90;;;;;;5065950;28;22338;-81
2023/09/25 04:58:14;;;;;;;1.90;0.80;;;16.10;99.90;;;;;;5067681;28;20044;-82
2023/09/25 05:00:44;;;;;;;2.70;0.75;;;16.10;99.90;;;;;;5084805;28;22518;-82
2023/09/25 05:03:11;;;;;;;2.78;0.60;;;16.10;99.90;;;;;;5066326;28;20406;-82
2023/09/25 05:05:38;;;;;;;2.85;1.00;;;16.10;99.90;;;;;;5067165;28;20043;-82
2023/09/25 05:08:06;;;;;;;2.30;0.70;;;16.20;99.90;;;;;;5077877;28;20081;-82
2023/09/25 05:10:35;;;;;;;2.45;0.90;;;16.10;99.90;;;;;;5065387;28;20135;-82
2023/09/25 05:13:02;;;;;;;2.13;0.60;;;16.20;99.90;;;;;;5080843;28;20086;-82
2023/09/25 05:15:29;;;;;;;3.13;0.77;;;16.20;99.90;;;;;;5079268;28;20128;-82
2023/09/25 05:17:57;;;;;;;2.58;0.65;;;16.20;99.90;;;;;;5068790;28;20040;-82
2023/09/25 05:20:26;;;;;;;2.40;0.73;;;16.20;99.90;;;;;;5068929;28;20067;-82
2023/09/25 05:22:55;;;;;;;1.67;0.63;;;16.20;99.90;;;;;;5079629;28;20058;-82
2023/09/25 05:25:23;;;;;;;2.35;0.50;;;16.20;99.90;;;;;;5071420;28;20033;-82
2023/09/25 05:27:52;;;;;;;1.83;0.40;;;16.20;99.90;;;;;;5078552;28;20039;-82
2023/09/25 05:30:20;;;;;;;2.53;0.73;;;16.20;99.90;;;;;;5077508;28;20044;-83
2023/09/25 05:32:50;;;;;;;3.92;0.80;;;16.20;99.90;;;;;;5075695;28;20044;-82
2023/09/25 05:35:18;;;;;;;3.78;0.50;;;16.20;99.90;;;;;;5090812;27;20048;-82
2023/09/25 05:37:45;;;;;;;2.38;0.88;;;16.20;99.90;;;;;;5068964;28;20498;-81
2023/09/25 05:40:15;;;;;;;1.95;0.50;;;16.30;99.90;;;;;;5076322;28;20116;-82
2023/09/25 05:42:47;;;;;;;3.83;0.65;;;16.30;99.90;;;;;;5063065;28;20048;-82
2023/09/25 05:45:15;;;;;;;3.30;0.60;;;16.40;99.90;;;;;;5075860;28;20049;-82
2023/09/25 05:47:44;;;;;;;4.65;0.75;;;16.40;99.90;;;;;;5063269;28;20131;-82
2023/09/25 05:50:12;;;;;;;4.63;0.57;;;16.50;99.90;;;;;;5083260;28;20068;-82
2023/09/25 05:52:40;;;;;;;2.58;0.70;;;16.50;99.90;;;;;;5071425;28;20052;-82
2023/09/25 05:55:08;;;;;;;2.45;0.90;;;16.50;99.90;;;;;;5066577;28;20052;-82
2023/09/25 05:57:35;;;;;;;2.78;0.77;;;16.60;99.90;;;;;;5058499;28;20056;-82
2023/09/25 06:00:10;;;;;;;1.90;0.90;;;16.70;99.90;;;;;;5085831;28;20512;-81
2023/09/25 06:02:42;;;;;;;3.08;0.75;;;16.70;99.90;;;;;;5078157;28;20047;-81
2023/09/25 06:05:13;;;;;;;1.80;0.50;;;16.80;99.90;;;;;;5087069;28;22506;-82
2023/09/25 06:07:42;;;;;;;2.05;0.73;;;17.00;99.90;;;;;;5082504;28;20052;-82
2023/09/25 06:10:10;;;;;;;3.17;0.85;;;17.10;99.90;;;;;;5087175;28;20885;-82
2023/09/25 06:12:39;;;;;;;4.00;0.88;;;17.20;99.90;;;;;;5066441;28;20482;-82
2023/09/25 06:15:10;;;;;;;4.20;0.82;;;17.20;99.90;;;;;;5070461;28;20131;-82
2023/09/25 06:17:39;;;;;;;2.30;0.73;;;17.30;99.90;;;;;;5084031;28;20044;-81
2023/09/25 06:20:14;;;;;;;2.30;0.68;;;17.30;99.90;;;;;;5072674;28;20040;-81
2023/09/25 06:22:44;;;;;;;2.78;0.60;;;17.30;99.90;;;;;;5078489;28;20669;-82
2023/09/25 06:25:11;;;;;;;1.70;0.52;;;17.30;99.90;;;;;;5069979;28;20067;-82
2023/09/25 06:27:39;;;;;;;1.23;0.40;;;17.30;99.90;;;;;;5058633;28;20060;-82
2023/09/25 06:30:09;;;;;;;4.78;0.77;;;17.30;99.90;;;;;;5078891;28;20398;-81
2023/09/25 06:32:37;;;;;;;2.13;0.50;;;17.30;99.90;;;;;;5071618;28;20044;-80
2023/09/25 06:35:06;;;;;;;1.85;0.43;;;17.30;99.90;;;;;;5083250;28;20044;-80
2023/09/25 06:37:34;;;;;;;4.13;1.40;;;17.30;99.90;;;;;;5082872;28;20064;-80
2023/09/25 06:40:09;;;;;;;1.42;0.60;;;17.30;99.90;;;;;;5082472;28;20165;-81
2023/09/25 06:42:38;;;;;;;5.30;0.47;;;17.30;99.90;;;;;;5088174;28;20133;-80
2023/09/25 06:45:08;;;;;;;2.67;0.75;;;17.30;99.90;;;;;;5095975;27;20124;-80
2023/09/25 06:47:36;;;;;;;2.72;0.63;;;17.30;99.90;;;;;;5085893;28;20039;-76
2023/09/25 06:50:05;;;;;;;5.22;0.73;;;17.40;99.90;;;;;;5089786;28;20048;-82
2023/09/25 06:52:32;;;;;;;2.97;0.80;;;17.50;99.90;;;;;;5080384;28;20063;-81
2023/09/25 06:54:59;;;;;;;2.85;0.60;;;17.50;99.90;;;;;;5067357;28;20055;-82
2023/09/25 06:57:26;;;;;;;3.13;0.80;;;17.50;99.90;;;;;;5091920;28;20090;-82
2023/09/25 06:59:53;;;;;;;2.67;0.60;;;17.60;99.90;;;;;;5080031;28;20060;-81
2023/09/25 07:02:21;;;;;;;1.88;0.50;;;17.80;99.90;;;;;;5067730;28;20949;-81
2023/09/25 07:04:48;;;;;;;3.20;0.63;;;18.00;99.90;;;;;;5061860;28;20090;-81
2023/09/25 07:07:15;;;;;;;5.25;1.10;;;18.20;99.90;;;;;;5091880;28;20044;-79
2023/09/25 07:09:43;;;;;;;1.25;0.60;;;18.00;99.90;;;;;;5087525;28;20044;-81
2023/09/25 07:12:14;;;;;;;3.78;0.80;;;18.00;99.90;;;;;;5087759;28;20039;-83
2023/09/25 07:14:56;;;;;;;3.33;0.95;;;18.00;99.90;;;;;;5087196;28;20449;-81
2023/09/25 07:17:23;;;;;;;5.43;0.80;;;18.00;99.90;;;;;;5072681;28;20056;-81
2023/09/25 07:19:57;;;;;;;3.90;1.10;;;18.10;99.90;;;;;;5067398;28;20043;-81
2023/09/25 07:22:27;;;;;;;1.90;0.70;;;18.10;99.90;;;;;;5084297;28;20060;-80
2023/09/25 07:24:56;;;;;;;3.35;0.82;;;18.10;99.90;;;;;;5075290;28;20067;-82
2023/09/25 07:27:23;;;;;;;4.35;0.80;;;18.20;99.90;;;;;;5062603;28;20056;-84
2023/09/25 07:29:50;;;;;;;5.13;0.95;;;18.20;99.90;;;;;;5086167;28;20110;-80
2023/09/25 07:32:17;;;;;;;2.92;0.80;;;18.20;99.90;;;;;;5082780;28;20056;-82
2023/09/25 07:34:48;;;;;;;2.10;0.98;;;18.30;99.90;;;;;;5066157;28;20102;-80
2023/09/25 07:37:32;;;;;;;2.67;0.85;;;18.40;99.90;;;;;;5053293;28;20148;-79
2023/09/25 07:39:59;;;;;;;3.50;0.70;;;18.40;99.90;;;;;;5035744;28;22194;-82
2023/09/25 07:42:26;;;;;;;2.35;0.77;;;18.40;99.90;;;;;;5055148;28;20052;-81
2023/09/25 07:44:54;;;;;;;3.30;1.00;;;18.50;99.90;;;;;;5056439;28;20045;-79
2023/09/25 07:47:21;;;;;;;4.30;0.88;;;18.70;99.90;;;;;;5054014;28;21076;-77
2023/09/25 07:49:48;;;;;;;11.63;2.17;;;18.70;99.90;;;;;;5054681;28;20057;-79
2023/09/25 07:52:15;;;;;;;3.55;0.90;;;18.70;99.90;;;;;;5054582;28;20060;-80
2023/09/25 07:54:48;;;;;;;3.38;0.82;;;18.70;99.90;;;;;;5053120;28;20049;-79
2023/09/25 07:57:19;;;;;;;;;;;18.80;99.90;;;;;;5029292;28;20719;-80
2023/09/25 07:59:49;;;;;;;2.97;0.65;;;18.80;99.90;;;;;;5031760;28;19925;-79
2023/09/25 08:02:18;;;;;;;3.45;1.17;;;19.00;99.90;;;;;;5055963;28;22638;-79
2023/09/25 08:04:45;;;;;;;3.33;0.88;;;19.10;99.90;;;;;;5035903;28;20557;-81
2023/09/25 08:07:12;;;;;;;4.18;1.02;;;19.10;99.90;;;;;;5045894;28;20044;-81
2023/09/25 08:09:39;;;;;;;4.47;1.38;;;19.20;99.90;;;;;;5070660;28;20042;-78
2023/09/25 08:12:07;;;;;;;4.53;2.10;;;19.10;99.90;;;;;;5078877;28;20106;-81
2023/09/25 08:14:35;;;;;;;4.30;1.40;;;19.20;99.90;;;;;;5075400;28;20051;-80
2023/09/25 08:17:02;;;;;;;5.10;1.20;;;19.20;99.90;;;;;;5073163;28;21071;-81
2023/09/25 08:19:29;;;;;;;6.15;1.60;;;19.30;99.90;;;;;;5092114;28;20044;-79
2023/09/25 08:21:56;;;;;;;2.97;1.35;;;19.30;99.90;;;;;;5081084;28;20127;-81
2023/09/25 08:24:23;;;;;;;6.32;2.22;;;19.40;99.90;;;;;;5079317;28;20028;-79
2023/09/25 08:26:54;;;;;;;2.78;1.38;;;19.30;99.90;;;;;;5060388;28;20045;-78
2023/09/25 08:29:21;;;;;;;3.72;1.25;;;19.30;99.90;;;;;;5057415;28;20477;-79
2023/09/25 08:31:49;;;;;;;4.30;1.20;;;19.30;99.90;;;;;;5076347;28;20138;-80
2023/09/25 08:34:19;;;;;;;4.18;1.27;;;19.50;99.90;;;;;;5089334;28;20072;-81
2023/09/25 08:36:46;;;;;;;4.95;1.35;;;19.60;99.90;;;;;;5046560;28;20059;-80
2023/09/25 08:39:13;;;;;;;3.35;1.00;;;19.60;99.90;;;;;;5074306;28;20147;-80
2023/09/25 08:41:41;;;;;;;3.08;1.20;;;19.60;99.90;;;;;;5081497;28;20048;-78
2023/09/25 08:44:10;;;;;;;6.28;1.45;;;19.60;99.90;;;;;;5064009;28;20044;-81
2023/09/25 08:46:38;;;;;;;3.53;1.02;;;19.60;99.90;;;;;;5073496;28;20037;-79
2023/09/25 08:49:06;;;;;;;2.35;1.33;;;19.60;99.90;;;;;;5080775;28;20134;-80
2023/09/25 08:51:38;;;;;;;6.05;1.35;;;19.70;99.90;;;;;;5065605;28;20052;-81
2023/09/25 08:54:07;;;;;;;3.65;1.45;;;19.70;99.90;;;;;;5082532;28;20056;-80
2023/09/25 08:56:35;;;;;;;7.97;1.63;;;19.70;99.90;;;;;;5074691;28;20048;-81
2023/09/25 08:59:05;;;;;;;2.88;1.13;;;19.80;99.90;;;;;;5074077;28;20104;-80
2023/09/25 09:01:34;;;;;;;2.03;0.85;;;19.90;99.90;;;;;;5077941;28;20104;-80
2023/09/25 09:04:02;;;;;;;4.80;1.33;;;19.90;99.90;;;;;;5076818;28;20594;-80
2023/09/25 09:06:29;;;;;;;3.95;1.10;;;19.90;99.90;;;;;;5060970;28;20106;-82
2023/09/25 09:08:57;;;;;;;5.75;1.08;;;19.80;99.90;;;;;;5064134;28;20495;-81
2023/09/25 09:11:25;;;;;;;7.13;1.98;;;19.90;99.90;;;;;;5076132;28;20527;-80
2023/09/25 09:13:52;;;;;;;2.72;0.90;;;19.90;99.90;;;;;;5065982;28;20059;-79
2023/09/25 09:16:19;;;;;;;4.15;1.05;;;20.00;99.90;;;;;;5065669;28;20048;-80
2023/09/25 09:18:47;;;;;;;5.43;1.27;;;20.00;99.90;;;;;;5076906;28;20063;-82
2023/09/25 09:21:24;;;;;;;4.03;1.17;;;20.10;99.90;;;;;;5085171;28;20050;-82
2023/09/25 09:23:56;;;;;;;3.72;1.27;;;20.20;99.90;;;;;;5061908;28;20040;-82
2023/09/25 09:26:25;;;;;;;5.88;1.13;;;20.30;99.90;;;;;;5076134;28;20505;-79
2023/09/25 09:28:55;;;;;;;5.57;1.35;;;20.30;99.90;;;;;;5065537;28;20044;-81
2023/09/25 09:31:25;;;;;;;4.95;1.73;;;20.40;99.90;;;;;;5072260;28;20040;-80
2023/09/25 09:33:56;;;;;;;6.43;1.67;;;20.40;99.90;;;;;;5060016;28;20057;-79
2023/09/25 09:36:23;;;;;;;3.85;1.20;;;20.60;99.90;;;;;;5059467;28;20049;-82
2023/09/25 09:38:52;;;;;;;4.32;1.05;;;20.60;99.90;;;;;;5066029;28;20052;-81
2023/09/25 09:41:19;;;;;;;5.18;0.90;;;20.40;99.90;;;;;;5067915;28;20044;-80
2023/09/25 09:43:47;;;;;;;2.30;1.58;;;20.40;99.90;;;;;;5063455;28;20509;-81
2023/09/25 09:46:16;;;;;;;5.57;1.25;;;20.40;99.90;;;;;;5064173;28;20048;-80
2023/09/25 09:48:47;;;;;;;6.85;1.20;;;20.40;99.90;;;;;;5088416;28;20113;-81
2023/09/25 09:51:17;;;;;;;5.67;1.20;;;20.40;99.90;;;;;;5052330;28;20060;-80
2023/09/25 09:53:45;;;;;;;4.85;1.08;;;20.50;99.90;;;;;;5059871;28;20426;-82
2023/09/25 09:56:15;;;;;;;3.90;1.10;;;20.50;99.90;;;;;;5073840;28;20102;-79
2023/09/25 09:58:46;;;;;;;3.03;1.13;;;20.50;99.90;;;;;;5071952;28;20044;-81
2023/09/25 10:01:14;;;;;;;4.30;1.17;;;20.50;99.90;;;;;;5075101;28;20052;-82
2023/09/25 10:03:42;;;;;;;6.82;1.40;;;20.60;99.90;;;;;;5087244;28;22631;-82
2023/09/25 10:06:11;;;;;;;3.72;1.15;;;20.60;99.90;;;;;;5097666;28;22499;-82
2023/09/25 10:08:38;;;;;;;3.22;1.13;;;20.60;99.90;;;;;;5059992;28;20032;-82
2023/09/25 10:11:16;;;;;;;6.15;1.73;;;20.70;99.90;;;;;;5071042;28;20445;-79
2023/09/25 10:13:43;;;;;;;3.67;0.90;;;20.70;99.90;;;;;;5075370;28;20460;-80
2023/09/25 10:16:12;;;;;;;7.85;1.13;;;20.80;99.90;;;;;;5056576;28;20495;-79
2023/09/25 10:18:41;;;;;;;3.70;1.52;;;20.80;99.90;;;;;;5088586;28;20962;-81
2023/09/25 10:21:16;;;;;;;5.07;1.08;;;20.90;99.90;;;;;;5071209;28;20052;-80
2023/09/25 10:23:47;;;;;;;8.23;1.73;;;21.00;99.90;;;;;;5074210;28;20403;-79
2023/09/25 10:26:21;;;;;;;4.37;1.43;;;21.10;99.90;;;;;;5069099;28;21394;-81
2023/09/25 10:29:10;;;;;;;8.38;1.23;;;21.20;99.90;;;;;;5063554;28;20121;-81
2023/09/25 10:31:37;;;;;;;3.15;1.00;;;21.30;99.90;;;;;;5069703;28;20052;-84
2023/09/25 10:34:08;;;;;;;5.85;1.98;;;21.30;99.90;;;;;;5077627;28;20067;-81
2023/09/25 10:36:37;;;;;;;2.15;0.90;;;21.30;99.90;;;;;;5066808;28;20063;-81
2023/09/25 10:39:07;;;;;;;5.60;1.30;;;21.30;99.90;;;;;;5065821;28;20040;-81
2023/09/25 10:41:35;;;;;;;5.57;1.30;;;21.20;99.90;;;;;;5079242;28;20058;-80
2023/09/25 10:44:02;;;;;;;5.40;1.60;;;21.10;99.90;;;;;;5085085;28;20120;-81
2023/09/25 10:46:30;;;;;;;3.78;0.70;;;21.20;99.90;;;;;;5063383;28;20049;-81
2023/09/25 10:49:00;;;;;;;5.07;1.42;;;21.30;99.90;;;;;;5080267;28;20044;-78
2023/09/25 10:51:27;;;;;;;1.83;0.80;;;21.50;99.90;;;;;;5073198;28;20052;-80
2023/09/25 10:53:54;;;;;;;2.72;1.08;;;21.40;99.90;;;;;;5092330;28;20052;-80
2023/09/25 10:56:21;;;;;;;3.20;1.33;;;21.50;99.90;;;;;;5056427;28;20056;-82
2023/09/25 10:58:52;;;;;;;8.57;1.27;;;21.60;99.90;;;;;;5068437;28;20148;-84
2023/09/25 11:01:30;;;;;;;4.93;1.13;;;21.70;99.90;;;;;;5061623;28;20059;-82
2023/09/25 11:03:59;;;;;;;4.60;0.90;;;21.70;99.90;;;;;;5070208;28;20075;-81
2023/09/25 11:06:28;;;;;;;5.28;1.17;;;21.80;99.90;;;;;;5084003;28;20047;-80
2023/09/25 11:09:05;;;;;;;5.13;1.60;;;21.90;99.90;;;;;;5082870;28;20090;-78
2023/09/25 11:11:33;;;;;;;2.92;0.80;;;22.00;99.90;;;;;;5053770;28;20399;-81
2023/09/25 11:14:00;;;;;;;3.70;1.30;;;22.00;99.90;;;;;;5063497;28;20052;-79
2023/09/25 11:16:28;;;;;;;5.32;1.20;;;22.10;99.90;;;;;;5088243;28;20047;-81
2023/09/25 11:19:12;;;;;;;5.00;1.42;;;22.20;99.90;;;;;;5096083;28;20048;-80
2023/09/25 11:21:41;;;;;;;4.43;0.85;;;22.30;99.90;;;;;;5073517;28;22520;-80
2023/09/25 11:24:10;;;;;;;6.35;1.30;;;22.40;99.90;;;;;;5078509;28;20089;-80
2023/09/25 11:26:38;;;;;;;5.30;1.20;;;22.40;99.90;;;;;;5060226;28;20059;-81
2023/09/25 11:29:06;;;;;;;3.53;1.65;;;22.40;99.90;;;;;;5066396;28;22434;-82
2023/09/25 11:31:36;;;;;;;2.42;0.52;;;22.60;99.90;;;;;;5080430;28;20052;-81
2023/09/25 11:34:23;;;;;;;5.35;0.82;;;22.60;99.90;;;;;;5068512;28;20045;-79
2023/09/25 11:36:51;;;;;;;4.63;0.65;;;22.60;99.90;;;;;;5083941;28;20045;-82
2023/09/25 11:39:20;;;;;;;2.83;0.85;;;22.60;99.90;;;;;;5065218;28;20067;-80
2023/09/25 11:41:47;;;;;;;4.47;0.93;;;22.50;99.90;;;;;;5059798;28;20131;-80
2023/09/25 11:44:14;;;;;;;3.10;0.73;;;22.50;99.90;;;;;;5083707;28;20051;-83
2023/09/25 11:46:42;;;;;;;2.35;0.50;;;22.60;99.90;;;;;;5072470;28;20051;-82
2023/09/25 11:49:12;;;;;;;7.50;1.20;;;22.60;99.90;;;;;;5073718;28;20060;-80
2023/09/25 11:51:39;;;;;;;3.33;0.80;;;22.60;99.90;;;;;;5076330;28;20055;-81
2023/09/25 11:54:07;;;;;;;2.95;0.63;;;22.50;99.90;;;;;;5091795;28;20052;-83
2023/09/25 11:56:34;;;;;;;3.88;0.70;;;22.60;99.90;;;;;;5075889;28;20102;-81
2023/09/25 11:59:01;;;;;;;4.55;1.10;;;22.80;99.90;;;;;;5078594;28;20542;-81
2023/09/25 12:01:28;;;;;;;6.40;1.10;;;22.80;99.90;;;;;;5087790;28;20051;-81
2023/09/25 12:03:56;;;;;;;3.55;0.90;;;22.80;99.90;;;;;;5075307;28;20055;-81
2023/09/25 12:06:25;;;;;;;4.35;0.70;;;22.80;99.90;;;;;;5076018;28;20110;-80
2023/09/25 12:08:54;;;;;;;4.47;0.80;;;22.70;99.90;;;;;;5082795;28;20122;-78
2023/09/25 12:11:22;;;;;;;3.85;0.80;;;22.70;99.90;;;;;;5092270;28;20044;-79
2023/09/25 12:13:49;;;;;;;4.85;0.98;;;22.70;99.90;;;;;;5089343;28;20059;-81
2023/09/25 12:16:17;;;;;;;4.70;1.05;;;22.70;99.90;;;;;;5082858;28;20048;-80
2023/09/25 12:18:46;;;;;;;5.90;0.65;;;22.80;99.90;;;;;;5063340;28;20044;-83
2023/09/25 12:21:14;;;;;;;3.90;0.57;;;22.90;99.90;;;;;;5088221;28;20101;-80
2023/09/25 12:23:43;;;;;;;2.40;0.60;;;23.00;99.90;;;;;;5059848;28;20048;-83
2023/09/25 12:26:15;;;;;;;4.72;0.90;;;23.00;99.90;;;;;;5067857;28;20040;-82
2023/09/25 12:28:42;;;;;;;;;;;23.10;99.90;;;;;;5073945;28;20054;-81
2023/09/25 12:31:10;;;;;;;6.78;1.38;;;23.20;99.90;;;;;;5072533;28;19924;-80
2023/09/25 12:33:37;;;;;;;2.70;0.77;;;23.20;99.90;;;;;;5076168;28;20059;-81
2023/09/25 12:36:04;;;;;;;3.95;0.95;;;23.20;99.50;;;;;;5080687;28;20454;-79
2023/09/25 12:38:31;;;;;;;2.40;1.17;;;23.20;98.90;;;;;;5075322;28;20052;-83
2023/09/25 12:41:01;;;;;;;2.70;1.00;;;23.20;99.30;;;;;;5076490;28;20048;-83
2023/09/25 12:43:28;;;;;;;5.88;1.25;;;23.20;99.50;;;;;;5067411;28;20049;-80
2023/09/25 12:45:55;;;;;;;4.38;1.13;;;23.20;99.20;;;;;;5074082;28;20044;-83
2023/09/25 12:48:23;;;;;;;4.65;1.00;;;23.20;99.60;;;;;;5077463;28;20048;-81
2023/09/25 12:50:51;;;;;;;7.47;0.93;;;23.20;99.30;;;;;;5073795;28;20114;-77
2023/09/25 12:53:19;;;;;;;4.85;0.98;;;23.30;99.80;;;;;;5071790;28;20048;-82
2023/09/25 12:55:46;;;;;;;3.38;1.27;;;23.30;99.10;;;;;;5064728;28;20080;-80